createdAt,value
2019-05-18T00:00:43.832Z,80.24
2019-05-18T00:01:43.880Z,80.33
2019-05-18T00:02:43.923Z,80.04
2019-05-18T00:03:43.946Z,80.90
2019-05-18T00:04:43.966Z,80.90
2019-05-18T00:05:44.014Z,81.20
2019-05-18T00:06:44.053Z,80.71
2019-05-18T00:07:44.085Z,81.20
2019-05-18T00:08:44.110Z,81.20
2019-05-18T00:09:44.206Z,81.29
2019-05-18T00:10:44.176Z,81.48
2019-05-18T00:11:44.219Z,81.67
2019-05-18T00:12:44.238Z,81.38
2019-05-18T00:13:44.276Z,81.29
2019-05-18T00:14:44.312Z,81.67
2019-05-18T00:15:44.355Z,81.15
2019-05-18T00:16:44.385Z,81.63
2019-05-18T00:17:44.426Z,81.34
2019-05-18T00:18:44.449Z,81.38
2019-05-18T00:19:44.515Z,81.73
2019-05-18T00:20:44.518Z,81.77
2019-05-18T00:21:44.585Z,81.34
2019-05-18T00:22:44.588Z,81.25
2019-05-18T00:23:44.639Z,81.63
2019-05-18T00:24:44.654Z,81.63
2019-05-18T00:25:44.678Z,82.01
2019-05-18T00:26:44.731Z,81.73
2019-05-18T00:27:44.744Z,81.92
2019-05-18T00:28:44.786Z,82.20
2019-05-18T00:29:44.811Z,81.57
2019-05-18T00:30:44.869Z,81.73
2019-05-18T00:31:44.887Z,82.01
2019-05-18T00:32:44.921Z,81.73
2019-05-18T00:33:44.941Z,82.11
2019-05-18T00:34:44.987Z,81.82
2019-05-18T00:35:45.014Z,81.63
2019-05-18T00:36:45.056Z,81.54
2019-05-18T00:37:45.088Z,81.73
2019-05-18T00:38:45.120Z,82.01
2019-05-18T00:39:45.158Z,82.11
2019-05-18T00:40:45.185Z,82.20
2019-05-18T00:41:45.652Z,82.20
2019-05-18T00:42:45.255Z,82.11
2019-05-18T00:43:45.274Z,82.01
2019-05-18T00:44:45.321Z,82.20
2019-05-18T00:45:45.347Z,82.11
2019-05-18T00:46:45.391Z,82.11
2019-05-18T00:47:45.429Z,82.97
2019-05-18T00:48:45.456Z,82.20
2019-05-18T00:49:45.482Z,82.87
2019-05-18T00:50:45.520Z,83.16
2019-05-18T00:51:45.563Z,83.06
2019-05-18T00:52:45.587Z,83.26
2019-05-18T00:53:45.620Z,82.78
2019-05-18T00:54:45.665Z,83.54
2019-05-18T00:55:45.682Z,83.06
2019-05-18T00:56:45.714Z,83.73
2019-05-18T00:57:45.758Z,83.26
2019-05-18T00:58:45.793Z,83.45
2019-05-18T00:59:45.822Z,83.73
2019-05-18T01:00:45.849Z,83.40
2019-05-18T01:01:45.892Z,83.16
2019-05-18T01:02:45.914Z,83.45
2019-05-18T01:03:45.956Z,83.45
2019-05-18T01:04:45.985Z,84.08
2019-05-18T01:05:46.021Z,83.89
2019-05-18T01:06:46.065Z,83.36
2019-05-18T01:07:46.090Z,84.08
2019-05-18T01:08:46.119Z,84.36
2019-05-18T01:09:46.154Z,84.27
2019-05-18T01:10:46.208Z,84.08
2019-05-18T01:11:46.237Z,83.89
2019-05-18T01:12:46.249Z,84.27
2019-05-18T01:13:46.287Z,84.36
2019-05-18T01:14:46.316Z,83.79
2019-05-18T01:15:46.342Z,83.98
2019-05-18T01:16:46.390Z,83.98
2019-05-18T01:17:56.920Z,84.36
2019-05-18T01:18:46.460Z,84.46
2019-05-18T01:19:46.475Z,84.46
2019-05-18T01:20:46.521Z,84.75
2019-05-18T01:21:46.558Z,84.94
2019-05-18T01:22:46.585Z,84.94
2019-05-18T01:23:46.621Z,84.75
2019-05-18T01:24:46.651Z,84.94
2019-05-18T01:25:46.674Z,84.84
2019-05-18T01:26:46.725Z,85.13
2019-05-18T01:27:46.744Z,85.13
2019-05-18T01:28:46.783Z,84.84
2019-05-18T01:29:46.820Z,85.13
2019-05-18T01:30:46.845Z,84.94
2019-05-18T01:31:46.884Z,85.32
2019-05-18T01:32:46.915Z,84.36
2019-05-18T01:33:46.948Z,85.51
2019-05-18T01:34:46.985Z,85.51
2019-05-18T01:35:47.012Z,85.32
2019-05-18T01:36:47.052Z,85.03
2019-05-18T01:37:47.082Z,84.84
2019-05-18T01:38:47.114Z,84.75
2019-05-18T01:39:47.148Z,85.22
2019-05-18T01:40:47.222Z,84.55
2019-05-18T01:41:47.217Z,84.84
2019-05-18T01:42:47.253Z,85.13
2019-05-18T01:43:47.269Z,85.41
2019-05-18T01:44:47.308Z,85.13
2019-05-18T01:45:47.340Z,85.13
2019-05-18T01:46:47.383Z,85.71
2019-05-18T01:47:47.401Z,84.84
2019-05-18T01:48:47.437Z,85.61
2019-05-18T01:49:47.483Z,85.61
2019-05-18T01:50:47.538Z,85.41
2019-05-18T01:51:47.547Z,85.51
2019-05-18T01:52:47.578Z,85.41
2019-05-18T01:53:47.611Z,84.94
2019-05-18T01:54:47.644Z,84.84
2019-05-18T01:55:47.676Z,85.03
2019-05-18T01:56:47.710Z,85.38
2019-05-18T01:57:47.742Z,85.47
2019-05-18T01:58:47.779Z,85.75
2019-05-18T01:59:47.809Z,84.75
2019-05-18T02:00:47.838Z,85.22
2019-05-18T02:01:47.878Z,85.57
2019-05-18T02:02:47.914Z,85.89
2019-05-18T02:03:47.930Z,85.85
2019-05-18T02:04:47.966Z,85.66
2019-05-18T02:05:47.997Z,85.89
2019-05-18T02:06:48.033Z,85.75
2019-05-18T02:07:48.064Z,85.75
2019-05-18T02:08:48.103Z,85.66
2019-05-18T02:09:48.132Z,85.57
2019-05-18T02:10:48.173Z,86.71
2019-05-18T02:11:48.204Z,85.94
2019-05-18T02:12:48.237Z,86.33
2019-05-18T02:13:48.269Z,86.43
2019-05-18T02:14:48.303Z,86.43
2019-05-18T02:15:48.321Z,86.23
2019-05-18T02:16:48.370Z,86.90
2019-05-18T02:17:48.397Z,86.90
2019-05-18T02:18:48.437Z,85.94
2019-05-18T02:19:48.464Z,86.43
2019-05-18T02:20:48.503Z,86.61
2019-05-18T02:21:48.537Z,87.09
2019-05-18T02:22:48.571Z,87.00
2019-05-18T02:23:48.606Z,87.09
2019-05-18T02:24:48.633Z,87.09
2019-05-18T02:25:48.665Z,86.90
2019-05-18T02:26:48.691Z,87.09
2019-05-18T02:27:48.717Z,87.09
2019-05-18T02:28:48.762Z,87.38
2019-05-18T02:29:48.798Z,86.90
2019-05-18T02:30:48.831Z,87.29
2019-05-18T02:31:48.860Z,87.00
2019-05-18T02:32:48.891Z,87.29
2019-05-18T02:33:48.924Z,87.09
2019-05-18T02:34:48.943Z,87.48
2019-05-18T02:35:49.004Z,87.48
2019-05-18T02:36:49.021Z,87.29
2019-05-18T02:37:49.059Z,87.48
2019-05-18T02:38:49.103Z,87.19
2019-05-18T02:39:49.122Z,87.38
2019-05-18T02:40:49.163Z,87.29
2019-05-18T02:41:49.196Z,87.48
2019-05-18T02:42:49.209Z,87.19
2019-05-18T02:43:49.254Z,87.09
2019-05-18T02:44:49.272Z,87.38
2019-05-18T02:45:49.311Z,87.38
2019-05-18T02:46:49.340Z,87.29
2019-05-18T02:47:49.378Z,88.05
2019-05-18T02:48:50.795Z,88.15
2019-05-18T02:49:49.449Z,87.29
2019-05-18T02:50:49.483Z,87.76
2019-05-18T02:51:49.514Z,87.76
2019-05-18T02:52:49.546Z,87.76
2019-05-18T02:53:49.608Z,87.66
2019-05-18T02:54:49.632Z,87.76
2019-05-18T02:55:49.645Z,87.95
2019-05-18T02:56:49.668Z,88.05
2019-05-18T02:57:49.722Z,87.66
2019-05-18T02:58:49.744Z,88.01
2019-05-18T02:59:49.777Z,87.91
2019-05-18T03:00:49.815Z,87.66
2019-05-18T03:01:49.841Z,87.86
2019-05-18T03:02:49.909Z,87.86
2019-05-18T03:03:49.896Z,87.62
2019-05-18T03:04:49.943Z,87.62
2019-05-18T03:05:49.973Z,88.05
2019-05-18T03:06:50.004Z,88.01
2019-05-18T03:07:50.046Z,88.10
2019-05-18T03:08:50.067Z,87.82
2019-05-18T03:09:50.101Z,87.53
2019-05-18T03:10:50.134Z,88.01
2019-05-18T03:11:50.168Z,87.72
2019-05-18T03:12:50.196Z,87.82
2019-05-18T03:13:50.229Z,88.29
2019-05-18T03:14:50.264Z,87.53
2019-05-18T03:15:50.294Z,87.82
2019-05-18T03:16:50.324Z,87.91
2019-05-18T03:17:50.363Z,87.72
2019-05-18T03:19:06.922Z,87.91
2019-05-18T03:19:50.427Z,87.72
2019-05-18T03:20:50.470Z,87.72
2019-05-18T03:21:50.482Z,88.20
2019-05-18T03:22:50.524Z,87.82
2019-05-18T03:23:50.561Z,88.29
2019-05-18T03:24:50.578Z,88.01
2019-05-18T03:25:50.629Z,88.39
2019-05-18T03:26:50.652Z,88.20
2019-05-18T03:27:50.680Z,88.10
2019-05-18T03:28:50.719Z,88.48
2019-05-18T03:29:50.751Z,88.48
2019-05-18T03:30:50.770Z,88.10
2019-05-18T03:31:50.816Z,88.77
2019-05-18T03:32:50.852Z,88.01
2019-05-18T03:33:50.891Z,88.58
2019-05-18T03:34:50.913Z,88.10
2019-05-18T03:35:50.946Z,88.20
2019-05-18T03:36:50.975Z,88.29
2019-05-18T03:37:51.019Z,88.39
2019-05-18T03:38:51.045Z,88.01
2019-05-18T03:39:51.096Z,88.58
2019-05-18T03:40:51.097Z,88.58
2019-05-18T03:41:51.144Z,88.39
2019-05-18T03:42:51.172Z,88.58
2019-05-18T03:43:51.207Z,88.58
2019-05-18T03:44:51.230Z,88.77
2019-05-18T03:45:51.262Z,88.68
2019-05-18T03:46:51.294Z,88.77
2019-05-18T03:47:51.334Z,89.25
2019-05-18T03:48:51.368Z,88.48
2019-05-18T03:49:51.411Z,88.58
2019-05-18T03:50:51.444Z,88.39
2019-05-18T03:51:51.467Z,88.39
2019-05-18T03:52:51.498Z,89.44
2019-05-18T03:53:51.531Z,89.15
2019-05-18T03:54:51.566Z,88.77
2019-05-18T03:55:51.598Z,88.77
2019-05-18T03:56:51.626Z,88.77
2019-05-18T03:57:51.665Z,88.77
2019-05-18T03:58:51.695Z,88.58
2019-05-18T03:59:51.745Z,89.25
2019-05-18T04:00:51.758Z,89.25
2019-05-18T04:01:51.783Z,89.25
2019-05-18T04:02:51.835Z,89.34
2019-05-18T04:03:51.858Z,89.44
2019-05-18T04:04:51.880Z,89.44
2019-05-18T04:05:51.920Z,89.06
2019-05-18T04:06:51.946Z,89.53
2019-05-18T04:07:51.998Z,88.96
2019-05-18T04:08:52.014Z,89.63
2019-05-18T04:09:52.050Z,89.53
2019-05-18T04:10:52.067Z,88.96
2019-05-18T04:11:52.115Z,89.25
2019-05-18T04:12:52.142Z,89.25
2019-05-18T04:13:52.179Z,89.25
2019-05-18T04:14:52.212Z,89.63
2019-05-18T04:15:52.244Z,89.53
2019-05-18T04:16:52.273Z,89.73
2019-05-18T04:17:52.313Z,89.73
2019-05-18T04:18:52.343Z,89.82
2019-05-18T04:19:52.397Z,89.73
2019-05-18T04:20:52.406Z,89.73
2019-05-18T04:21:52.440Z,89.82
2019-05-18T04:22:52.471Z,89.44
2019-05-18T04:23:52.529Z,89.29
2019-05-18T04:24:52.550Z,89.67
2019-05-18T04:25:52.566Z,89.29
2019-05-18T04:26:52.588Z,89.77
2019-05-18T04:27:52.643Z,89.58
2019-05-18T04:28:52.666Z,89.67
2019-05-18T04:29:52.697Z,89.63
2019-05-18T04:30:52.729Z,89.29
2019-05-18T04:31:52.763Z,89.48
2019-05-18T04:32:52.809Z,89.87
2019-05-18T04:33:52.825Z,89.67
2019-05-18T04:34:52.862Z,89.29
2019-05-18T04:35:52.891Z,89.87
2019-05-18T04:36:52.924Z,89.67
2019-05-18T04:37:52.960Z,89.87
2019-05-18T04:38:52.994Z,89.20
2019-05-18T04:39:53.020Z,89.20
2019-05-18T04:40:53.058Z,89.29
2019-05-18T04:41:53.086Z,89.77
2019-05-18T04:42:53.107Z,89.77
2019-05-18T04:43:53.162Z,89.77
2019-05-18T04:44:53.176Z,89.67
2019-05-18T04:45:53.248Z,89.29
2019-05-18T04:46:53.249Z,89.29
2019-05-18T04:47:53.283Z,89.48
2019-05-18T04:48:53.315Z,89.48
2019-05-18T04:50:04.599Z,89.29
2019-05-18T04:50:53.389Z,88.62
2019-05-18T04:51:53.418Z,88.72
2019-05-18T04:52:53.447Z,88.62
2019-05-18T04:53:53.481Z,89.20
2019-05-18T04:54:53.514Z,89.29
2019-05-18T04:55:53.531Z,89.48
2019-05-18T04:56:53.584Z,88.62
2019-05-18T04:57:53.614Z,89.48
2019-05-18T04:58:53.653Z,89.10
2019-05-18T04:59:53.674Z,89.20
2019-05-18T05:00:53.711Z,89.29
2019-05-18T05:01:53.750Z,88.81
2019-05-18T05:02:53.768Z,88.34
2019-05-18T05:03:53.815Z,88.72
2019-05-18T05:04:56.601Z,88.34
2019-05-18T05:05:53.873Z,88.15
2019-05-18T05:06:53.904Z,88.34
2019-05-18T05:07:53.936Z,87.95
2019-05-18T05:08:53.968Z,88.05
2019-05-18T05:09:53.992Z,88.15
2019-05-18T05:10:54.033Z,88.34
2019-05-18T05:11:54.058Z,88.05
2019-05-18T05:12:54.097Z,88.24
2019-05-18T05:13:54.138Z,88.53
2019-05-18T05:14:54.163Z,88.34
2019-05-18T05:15:54.199Z,88.53
2019-05-18T05:16:54.226Z,88.19
2019-05-18T05:17:54.273Z,88.34
2019-05-18T05:18:54.302Z,87.76
2019-05-18T05:19:54.333Z,88.38
2019-05-18T05:20:54.351Z,87.90
2019-05-18T05:21:54.387Z,87.90
2019-05-18T05:22:54.427Z,87.86
2019-05-18T05:23:54.458Z,87.95
2019-05-18T05:24:54.495Z,88.05
2019-05-18T05:25:54.527Z,87.29
2019-05-18T05:26:54.558Z,87.23
2019-05-18T05:27:54.594Z,87.23
2019-05-18T05:28:54.623Z,87.04
2019-05-18T05:29:54.697Z,87.52
2019-05-18T05:30:54.703Z,87.14
2019-05-18T05:31:54.711Z,87.43
2019-05-18T05:32:54.779Z,87.04
2019-05-18T05:33:54.785Z,87.14
2019-05-18T05:34:54.811Z,86.47
2019-05-18T05:35:54.870Z,86.66
2019-05-18T05:36:54.886Z,86.47
2019-05-18T05:37:54.928Z,86.47
2019-05-18T05:38:54.953Z,86.47
2019-05-18T05:39:54.978Z,86.18
2019-05-18T05:40:55.018Z,86.47
2019-05-18T05:41:55.059Z,86.37
2019-05-18T05:42:55.081Z,85.89
2019-05-18T05:43:55.115Z,85.89
2019-05-18T05:44:55.147Z,85.32
2019-05-18T05:45:55.181Z,85.71
2019-05-18T05:46:55.217Z,85.71
2019-05-18T05:47:55.250Z,85.80
2019-05-18T05:48:55.283Z,85.32
2019-05-18T05:49:55.319Z,85.51
2019-05-18T05:50:55.340Z,85.80
2019-05-18T05:51:55.384Z,85.71
2019-05-18T05:52:55.414Z,85.41
2019-05-18T05:53:55.448Z,85.32
2019-05-18T05:54:55.485Z,85.41
2019-05-18T05:55:55.506Z,85.61
2019-05-18T05:56:55.548Z,85.41
2019-05-18T05:57:55.582Z,85.61
2019-05-18T05:58:55.611Z,84.94
2019-05-18T05:59:55.644Z,84.59
2019-05-18T06:00:55.675Z,85.46
2019-05-18T06:01:55.709Z,84.22
2019-05-18T06:02:55.751Z,84.41
2019-05-18T06:03:55.778Z,84.41
2019-05-18T06:04:55.812Z,83.83
2019-05-18T06:05:55.841Z,84.02
2019-05-18T06:06:55.878Z,84.12
2019-05-18T06:07:55.906Z,84.12
2019-05-18T06:08:55.941Z,83.54
2019-05-18T06:09:55.971Z,83.45
2019-05-18T06:10:56.000Z,83.54
2019-05-18T06:11:56.034Z,83.06
2019-05-18T06:12:56.072Z,82.87
2019-05-18T06:13:56.136Z,83.06
2019-05-18T06:14:56.131Z,83.06
2019-05-18T06:15:56.175Z,82.87
2019-05-18T06:16:56.209Z,82.78
2019-05-18T06:17:56.229Z,82.87
2019-05-18T06:18:56.270Z,82.82
2019-05-18T06:19:56.302Z,82.92
2019-05-18T06:20:56.350Z,82.24
2019-05-18T06:21:56.373Z,82.43
2019-05-18T06:22:56.403Z,81.96
2019-05-18T06:23:56.429Z,81.38
2019-05-18T06:24:56.481Z,81.38
2019-05-18T06:25:56.509Z,81.20
2019-05-18T06:26:56.544Z,80.90
2019-05-18T06:27:56.573Z,80.62
2019-05-18T06:28:56.609Z,80.24
2019-05-18T06:29:56.646Z,80.04
2019-05-18T06:30:56.679Z,80.24
2019-05-18T06:31:56.701Z,78.61
2019-05-18T06:32:56.737Z,78.89
2019-05-18T06:33:56.769Z,79.28
2019-05-18T06:34:56.814Z,79.13
2019-05-18T06:35:56.842Z,78.42
2019-05-18T06:36:56.920Z,78.03
2019-05-18T06:37:56.933Z,77.36
2019-05-18T06:38:57.001Z,77.88
2019-05-18T06:39:57.016Z,77.97
2019-05-18T06:40:57.034Z,77.97
2019-05-18T06:41:57.078Z,77.31
2019-05-18T06:42:57.081Z,77.40
2019-05-18T06:43:58.458Z,77.21
2019-05-18T06:44:57.146Z,76.73
2019-05-18T06:45:57.184Z,76.64
2019-05-18T06:46:57.214Z,76.25
2019-05-18T06:47:57.242Z,75.87
2019-05-18T06:48:57.284Z,75.29
2019-05-18T06:49:57.321Z,75.01
2019-05-18T06:51:06.918Z,75.29
2019-05-18T06:51:57.383Z,75.58
2019-05-18T06:52:57.415Z,75.81
2019-05-18T06:53:57.441Z,75.81
2019-05-18T06:54:57.476Z,75.71
2019-05-18T06:55:57.521Z,75.52
2019-05-18T06:56:57.554Z,75.14
2019-05-18T06:57:57.581Z,73.90
2019-05-18T06:58:57.630Z,73.70
2019-05-18T06:59:57.650Z,72.64
2019-05-18T07:00:57.683Z,72.45
2019-05-18T07:01:57.719Z,72.36
2019-05-18T07:02:57.755Z,72.27
2019-05-18T07:03:57.787Z,71.69
2019-05-18T07:04:57.811Z,70.35
2019-05-18T07:05:57.851Z,70.15
2019-05-18T07:06:57.877Z,70.92
2019-05-18T07:07:57.921Z,70.54
2019-05-18T07:08:57.959Z,71.44
2019-05-18T07:09:57.994Z,71.15
2019-05-18T07:10:58.019Z,70.48
2019-05-18T07:11:58.058Z,69.90
2019-05-18T07:12:58.089Z,70.29
2019-05-18T07:13:58.122Z,70.09
2019-05-18T07:15:00.331Z,69.33
2019-05-18T07:15:58.201Z,69.52
2019-05-18T07:16:58.228Z,68.66
2019-05-18T07:17:58.268Z,68.75
2019-05-18T07:18:58.301Z,68.85
2019-05-18T07:19:58.331Z,69.62
2019-05-18T07:20:58.364Z,69.13
2019-05-18T07:21:58.402Z,68.50
2019-05-18T07:22:58.433Z,68.50
2019-05-18T07:23:58.470Z,68.69
2019-05-18T07:24:58.502Z,68.59
2019-05-18T07:25:58.536Z,68.50
2019-05-18T07:26:58.575Z,68.98
2019-05-18T07:27:58.603Z,69.07
2019-05-18T07:28:58.636Z,67.83
2019-05-18T07:29:58.677Z,68.79
2019-05-18T07:30:58.705Z,68.12
2019-05-18T07:31:58.735Z,67.73
2019-05-18T07:32:58.773Z,68.30
2019-05-18T07:33:58.815Z,68.30
2019-05-18T07:34:58.886Z,67.73
2019-05-18T07:35:58.883Z,67.63
2019-05-18T07:36:58.899Z,67.86
2019-05-18T07:37:58.951Z,68.44
2019-05-18T07:38:58.982Z,68.34
2019-05-18T07:39:59.018Z,68.05
2019-05-18T07:40:59.037Z,68.15
2019-05-18T07:41:59.087Z,68.44
2019-05-18T07:42:59.118Z,68.63
2019-05-18T07:43:59.157Z,68.85
2019-05-18T07:44:59.188Z,67.99
2019-05-18T07:45:59.237Z,68.08
2019-05-18T07:46:59.247Z,68.37
2019-05-18T07:47:59.294Z,68.08
2019-05-18T07:48:59.330Z,68.18
2019-05-18T07:49:59.356Z,67.93
2019-05-18T07:50:59.389Z,67.74
2019-05-18T07:51:59.440Z,67.35
2019-05-18T07:52:59.465Z,65.72
2019-05-18T07:53:59.499Z,65.62
2019-05-18T07:54:59.545Z,65.14
2019-05-18T07:55:59.574Z,64.56
2019-05-18T07:56:59.599Z,63.51
2019-05-18T07:57:59.644Z,63.99
2019-05-18T07:58:59.681Z,63.89
2019-05-18T07:59:59.715Z,63.15
2019-05-18T08:00:59.756Z,63.54
2019-05-18T08:01:59.785Z,63.54
2019-05-18T08:02:59.817Z,63.45
2019-05-18T08:03:59.854Z,63.54
2019-05-18T08:04:59.911Z,63.54
2019-05-18T08:05:59.931Z,63.25
2019-05-18T08:06:59.967Z,62.87
2019-05-18T08:07:59.994Z,62.38
2019-05-18T08:09:00.032Z,62.03
2019-05-18T08:10:00.067Z,62.61
2019-05-18T08:11:00.101Z,62.61
2019-05-18T08:12:00.128Z,61.84
2019-05-18T08:13:00.174Z,61.65
2019-05-18T08:14:00.209Z,61.55
2019-05-18T08:15:00.245Z,61.74
2019-05-18T08:16:00.282Z,60.78
2019-05-18T08:17:00.313Z,60.01
2019-05-18T08:18:00.350Z,60.24
2019-05-18T08:19:00.379Z,59.37
2019-05-18T08:20:00.427Z,58.89
2019-05-18T08:21:00.458Z,59.08
2019-05-18T08:22:00.490Z,59.75
2019-05-18T08:23:00.528Z,60.24
2019-05-18T08:24:00.564Z,59.56
2019-05-18T08:25:00.604Z,59.85
2019-05-18T08:26:00.638Z,59.94
2019-05-18T08:27:02.333Z,60.17
2019-05-18T08:28:00.713Z,60.07
2019-05-18T08:29:00.766Z,59.01
2019-05-18T08:30:00.780Z,58.92
2019-05-18T08:31:00.803Z,58.63
2019-05-18T08:32:00.846Z,59.30
2019-05-18T08:33:00.889Z,58.47
2019-05-18T08:34:00.914Z,58.75
2019-05-18T08:35:00.966Z,57.40
2019-05-18T08:36:01.002Z,57.40
2019-05-18T08:37:01.014Z,56.63
2019-05-18T08:38:01.068Z,56.73
2019-05-18T08:39:01.109Z,56.82
2019-05-18T08:40:01.135Z,57.50
2019-05-18T08:41:01.162Z,57.69
2019-05-18T08:42:01.203Z,56.92
2019-05-18T08:43:01.248Z,56.18
2019-05-18T08:44:01.270Z,55.87
2019-05-18T08:45:01.322Z,56.57
2019-05-18T08:46:01.374Z,56.47
2019-05-18T08:47:01.500Z,56.76
2019-05-18T08:48:01.461Z,55.89
2019-05-18T08:49:01.505Z,55.89
2019-05-18T08:50:01.527Z,55.02
2019-05-18T08:51:01.550Z,54.93
2019-05-18T08:52:08.448Z,54.25
2019-05-18T08:53:01.600Z,54.96
2019-05-18T08:54:01.638Z,54.16
2019-05-18T08:55:01.672Z,54.74
2019-05-18T08:56:01.709Z,54.66
2019-05-18T08:57:01.746Z,55.24
2019-05-18T08:58:01.803Z,55.44
2019-05-18T08:59:01.818Z,56.01
2019-05-18T09:00:01.908Z,55.24
2019-05-18T09:01:01.908Z,55.54
2019-05-18T09:02:01.937Z,54.96
2019-05-18T09:03:01.970Z,55.15
2019-05-18T09:04:02.016Z,55.46
2019-05-18T09:05:04.825Z,55.08
2019-05-18T09:06:02.091Z,54.79
2019-05-18T09:07:02.132Z,54.50
2019-05-18T09:08:02.145Z,54.31
2019-05-18T09:09:02.186Z,53.85
2019-05-18T09:10:02.231Z,54.24
2019-05-18T09:11:02.278Z,53.85
2019-05-18T09:12:02.398Z,53.75
2019-05-18T09:13:02.386Z,53.95
2019-05-18T09:14:02.368Z,53.75
2019-05-18T09:15:02.425Z,53.11
2019-05-18T09:16:02.457Z,53.49
2019-05-18T09:17:02.486Z,53.30
2019-05-18T09:18:04.837Z,53.01
2019-05-18T09:19:02.586Z,52.53
2019-05-18T09:20:02.589Z,52.81
2019-05-18T09:21:02.638Z,52.91
2019-05-18T09:22:02.669Z,53.03
2019-05-18T09:23:02.692Z,53.13
2019-05-18T09:24:02.738Z,52.26
2019-05-18T09:25:02.819Z,52.26
2019-05-18T09:26:02.827Z,52.36
2019-05-18T09:27:02.850Z,52.36
2019-05-18T09:28:02.892Z,52.26
2019-05-18T09:29:02.992Z,51.23
2019-05-18T09:30:03.103Z,50.93
2019-05-18T09:31:03.045Z,51.23
2019-05-18T09:32:03.041Z,51.13
2019-05-18T09:33:03.076Z,51.13
2019-05-18T09:34:03.130Z,51.23
2019-05-18T09:35:03.193Z,50.84
2019-05-18T09:36:03.201Z,50.26
2019-05-18T09:37:03.239Z,49.29
2019-05-18T09:38:03.279Z,49.70
2019-05-18T09:39:03.318Z,49.51
2019-05-18T09:40:03.350Z,49.39
2019-05-18T09:41:03.386Z,49.29
2019-05-18T09:42:03.427Z,48.35
2019-05-18T09:43:03.454Z,47.09
2019-05-18T09:44:03.488Z,47.77
2019-05-18T09:45:03.531Z,47.77
2019-05-18T09:46:03.570Z,46.70
2019-05-18T09:47:03.624Z,47.00
2019-05-18T09:48:03.716Z,46.90
2019-05-18T09:49:03.677Z,46.22
2019-05-18T09:50:03.717Z,45.74
2019-05-18T09:51:03.772Z,45.74
2019-05-18T09:52:03.997Z,46.32
2019-05-18T09:53:04.174Z,47.00
2019-05-18T09:54:03.866Z,46.73
2019-05-18T09:55:03.922Z,46.73
2019-05-18T09:56:03.953Z,46.92
2019-05-18T09:57:03.982Z,47.02
2019-05-18T09:58:04.024Z,46.73
2019-05-18T09:59:04.060Z,46.44
2019-05-18T10:00:04.100Z,46.63
2019-05-18T10:01:04.156Z,45.76
2019-05-18T10:02:04.172Z,45.30
2019-05-18T10:03:04.214Z,45.86
2019-05-18T10:04:04.259Z,46.17
2019-05-18T10:05:04.276Z,45.78
2019-05-18T10:06:04.361Z,45.30
2019-05-18T10:07:04.366Z,45.30
2019-05-18T10:08:04.415Z,45.20
2019-05-18T10:09:04.445Z,45.03
2019-05-18T10:10:04.483Z,45.13
2019-05-18T10:11:04.536Z,45.22
2019-05-18T10:12:04.566Z,44.64
2019-05-18T10:13:04.607Z,45.22
2019-05-18T10:14:04.668Z,44.54
2019-05-18T10:15:04.694Z,44.57
2019-05-18T10:16:04.715Z,44.57
2019-05-18T10:17:04.753Z,44.09
2019-05-18T10:18:04.788Z,43.41
2019-05-18T10:19:04.831Z,42.72
2019-05-18T10:20:04.868Z,43.41
2019-05-18T10:21:04.923Z,43.50
2019-05-18T10:22:04.942Z,43.41
2019-05-18T10:23:13.265Z,43.41
2019-05-18T10:24:05.024Z,42.75
2019-05-18T10:25:05.072Z,43.04
2019-05-18T10:26:05.101Z,43.62
2019-05-18T10:27:05.136Z,43.13
2019-05-18T10:28:05.182Z,43.04
2019-05-18T10:29:05.214Z,42.09
2019-05-18T10:30:05.260Z,41.51
2019-05-18T10:31:05.308Z,42.19
2019-05-18T10:32:05.337Z,42.38
2019-05-18T10:33:05.378Z,42.38
2019-05-18T10:34:05.415Z,42.38
2019-05-18T10:35:05.462Z,40.92
2019-05-18T10:36:05.489Z,41.33
2019-05-18T10:37:05.540Z,41.43
2019-05-18T10:38:05.585Z,41.72
2019-05-18T10:39:05.609Z,42.11
2019-05-18T10:40:05.663Z,41.63
2019-05-18T10:41:05.695Z,40.75
2019-05-18T10:42:05.735Z,40.85
2019-05-18T10:43:05.782Z,40.17
2019-05-18T10:44:05.804Z,40.17
2019-05-18T10:45:05.856Z,39.78
2019-05-18T10:46:05.898Z,40.85
2019-05-18T10:47:05.937Z,40.56
2019-05-18T10:48:05.983Z,40.36
2019-05-18T10:49:06.005Z,40.56
2019-05-18T10:50:06.041Z,40.75
2019-05-18T10:51:06.097Z,40.85
2019-05-18T10:52:06.130Z,40.85
2019-05-18T10:53:06.190Z,40.95
2019-05-18T10:54:06.205Z,41.64
2019-05-18T10:55:06.253Z,41.33
2019-05-18T10:56:06.289Z,40.87
2019-05-18T10:57:06.373Z,40.87
2019-05-18T10:58:06.377Z,40.19
2019-05-18T10:59:06.406Z,40.67
2019-05-18T11:00:06.475Z,40.87
2019-05-18T11:01:06.483Z,41.16
2019-05-18T11:02:06.528Z,40.99
2019-05-18T11:03:06.567Z,40.69
2019-05-18T11:04:06.603Z,39.92
2019-05-18T11:05:06.646Z,39.61
2019-05-18T11:06:06.691Z,39.22
2019-05-18T11:07:06.725Z,39.51
2019-05-18T11:08:06.769Z,40.97
2019-05-18T11:09:06.803Z,40.77
2019-05-18T11:10:06.837Z,40.97
2019-05-18T11:11:06.888Z,41.26
2019-05-18T11:12:06.951Z,40.29
2019-05-18T11:13:06.959Z,40.67
2019-05-18T11:14:07.013Z,40.99
2019-05-18T11:15:07.047Z,40.79
2019-05-18T11:16:07.088Z,40.60
2019-05-18T11:17:07.123Z,40.89
2019-05-18T11:18:07.208Z,39.43
2019-05-18T11:19:07.203Z,38.85
2019-05-18T11:20:07.244Z,39.04
2019-05-18T11:21:07.282Z,39.53
2019-05-18T11:22:07.321Z,38.17
2019-05-18T11:23:07.363Z,38.37
2019-05-18T11:24:07.403Z,38.85
2019-05-18T11:25:07.445Z,39.24
2019-05-18T11:26:07.489Z,40.09
2019-05-18T11:27:07.525Z,40.79
2019-05-18T11:28:07.561Z,39.80
2019-05-18T11:29:07.604Z,40.89
2019-05-18T11:30:07.991Z,40.21
2019-05-18T11:31:07.675Z,40.21
2019-05-18T11:32:07.728Z,39.92
2019-05-18T11:33:07.752Z,39.92
2019-05-18T11:34:07.825Z,40.89
2019-05-18T11:35:07.845Z,41.47
2019-05-18T11:36:07.881Z,40.69
2019-05-18T11:37:07.925Z,39.92
2019-05-18T11:38:07.963Z,40.21
2019-05-18T11:39:08.007Z,40.99
2019-05-18T11:40:08.042Z,40.01
2019-05-18T11:41:08.079Z,39.92
2019-05-18T11:42:08.119Z,39.24
2019-05-18T11:43:08.160Z,39.53
2019-05-18T11:44:10.806Z,39.43
2019-05-18T11:45:08.266Z,40.01
2019-05-18T11:46:08.281Z,39.34
2019-05-18T11:47:08.313Z,39.72
2019-05-18T11:48:08.371Z,39.41
2019-05-18T11:49:08.392Z,40.09
2019-05-18T11:50:08.465Z,39.32
2019-05-18T11:51:08.486Z,39.80
2019-05-18T11:52:08.520Z,40.77
2019-05-18T11:53:08.555Z,39.70
2019-05-18T11:54:08.618Z,40.09
2019-05-18T11:55:08.632Z,39.90
2019-05-18T11:56:08.689Z,40.19
2019-05-18T11:57:08.717Z,40.09
2019-05-18T11:58:08.763Z,40.97
2019-05-18T11:59:08.802Z,40.67
2019-05-18T12:00:08.848Z,40.09
2019-05-18T12:01:08.889Z,40.77
2019-05-18T12:02:08.927Z,40.39
2019-05-18T12:03:08.974Z,40.00
2019-05-18T12:04:08.998Z,40.67
2019-05-18T12:05:09.031Z,40.67
2019-05-18T12:06:09.081Z,40.77
2019-05-18T12:07:09.113Z,40.58
2019-05-18T12:08:09.161Z,40.87
2019-05-18T12:09:09.216Z,40.39
2019-05-18T12:10:09.247Z,39.90
2019-05-18T12:11:09.282Z,40.29
2019-05-18T12:12:09.327Z,39.70
2019-05-18T12:13:09.347Z,40.19
2019-05-18T12:14:09.407Z,39.03
2019-05-18T12:15:09.430Z,37.66
2019-05-18T12:16:09.483Z,37.96
2019-05-18T12:17:09.509Z,37.76
2019-05-18T12:18:09.569Z,38.34
2019-05-18T12:19:09.631Z,38.75
2019-05-18T12:20:09.654Z,38.07
2019-05-18T12:21:09.685Z,37.30
2019-05-18T12:22:09.721Z,37.10
2019-05-18T12:23:09.774Z,37.10
2019-05-18T12:24:15.538Z,37.98
2019-05-18T12:25:09.841Z,36.79
2019-05-18T12:26:09.877Z,36.11
2019-05-18T12:27:09.923Z,36.79
2019-05-18T12:28:09.968Z,36.89
2019-05-18T12:29:10.014Z,37.66
2019-05-18T12:30:10.066Z,38.15
2019-05-18T12:31:10.085Z,38.15
2019-05-18T12:32:10.128Z,37.08
2019-05-18T12:33:10.156Z,36.89
2019-05-18T12:34:10.204Z,36.21
2019-05-18T12:35:10.243Z,36.69
2019-05-18T12:36:10.279Z,36.69
2019-05-18T12:37:10.320Z,36.89
2019-05-18T12:38:10.367Z,37.57
2019-05-18T12:39:10.420Z,37.37
2019-05-18T12:40:10.447Z,37.96
2019-05-18T12:41:10.481Z,36.21
2019-05-18T12:42:10.519Z,36.89
2019-05-18T12:43:10.546Z,36.50
2019-05-18T12:44:10.600Z,36.40
2019-05-18T12:45:10.640Z,34.95
2019-05-18T12:46:10.686Z,35.33
2019-05-18T12:47:14.172Z,35.43
2019-05-18T12:48:10.761Z,35.33
2019-05-18T12:49:10.803Z,35.24
2019-05-18T12:50:10.844Z,33.98
2019-05-18T12:51:10.882Z,34.17
2019-05-18T12:52:10.923Z,33.69
2019-05-18T12:53:10.953Z,34.36